Terminal Aerodrome Forecast
Issued by NWS

Home | Current Version | Previous Version | Text Only | Print | Product List | Glossary On
Versions: 1 2 3 4 5 6 7 8 9 10 11 12 13 14 15 16 17 18 19 20 21 22 23 24 25 26 27 28 29 30 31 32 33 34 35 36 37 38 39 40 41 42 43 44 45 46 47 48 49 50
591
FTUS41 KOKX 252320
TAFHPN
TAF
KHPN 252320Z 2600/2624 VRB03KT P6SM BKN100
     FM260200 35006KT P6SM BKN100
     FM260400 34010KT P6SM SCT250
     FM261100 35012G19KT P6SM SKC
     FM262300 34007KT P6SM SKC
      AMD NOT SKED=

USA.gov is the U.S. government's official web portal to all federal, state and local government web resources and services.